Fountain, Pennsylvania
Current Conditions -  °F | °C
As of 1:58 AM on Tuesday 21 Oct 2014 (Local Time) from KMUI Reporting Station
Overcast Overcast  
Wind Chill: 50°   Ceiling: 7500
Heat Index: 50°   Visibility: 10mi
Dew Point: 50°   Wind: 2mph
Humidity: 100%   Direction: 10°N
Pressure: 29.9"   Gusts: NA
Location:  40.6638°N, 76.4802°W
Report Text: KMUI 210558Z AUTO 01002KT 10SM FEW060 OVC075 10/10 A2990 RMK AO2 RAE0550DZB0456E0457B0550E0555 SLP128 P0009 60009 T01000100 10117 20098 57013 $
Loading
Personal Weather Stations






























Interactive Weather Map
Tropical Storm Tracking
New forecast layout! Learn more

10-Day Weather Forecast

Advertisements
Track Severe Weather on mobile